sensor_id;sensor_type;location;lat;lon;timestamp;P1;durP1;ratioP1;P2;durP2;ratioP2
23390;SDS011;11868;45.606;5.302;2022-12-07T00:00:50;90.15;;;27.30;;
23390;SDS011;11868;45.606;5.302;2022-12-07T00:03:15;83.43;;;27.77;;
23390;SDS011;11868;45.606;5.302;2022-12-07T00:05:41;97.28;;;28.10;;
23390;SDS011;11868;45.606;5.302;2022-12-07T00:08:06;67.68;;;27.60;;
23390;SDS011;11868;45.606;5.302;2022-12-07T00:10:33;52.35;;;25.50;;
23390;SDS011;11868;45.606;5.302;2022-12-07T00:12:59;53.20;;;24.63;;
23390;SDS011;11868;45.606;5.302;2022-12-07T00:15:24;52.50;;;25.45;;
23390;SDS011;11868;45.606;5.302;2022-12-07T00:17:49;51.67;;;25.10;;
23390;SDS011;11868;45.606;5.302;2022-12-07T00:20:15;72.03;;;28.58;;
23390;SDS011;11868;45.606;5.302;2022-12-07T00:22:40;55.88;;;26.27;;
23390;SDS011;11868;45.606;5.302;2022-12-07T00:25:05;57.67;;;27.80;;
23390;SDS011;11868;45.606;5.302;2022-12-07T00:27:31;53.03;;;25.50;;
23390;SDS011;11868;45.606;5.302;2022-12-07T00:29:56;65.88;;;27.65;;
23390;SDS011;11868;45.606;5.302;2022-12-07T00:32:21;56.92;;;26.13;;
23390;SDS011;11868;45.606;5.302;2022-12-07T00:34:47;58.08;;;26.67;;
23390;SDS011;11868;45.606;5.302;2022-12-07T00:37:12;56.08;;;25.95;;
23390;SDS011;11868;45.606;5.302;2022-12-07T00:39:38;47.88;;;22.77;;
23390;SDS011;11868;45.606;5.302;2022-12-07T00:42:03;65.78;;;24.65;;
23390;SDS011;11868;45.606;5.302;2022-12-07T00:44:28;53.97;;;25.83;;
23390;SDS011;11868;45.606;5.302;2022-12-07T00:46:54;53.63;;;24.58;;
23390;SDS011;11868;45.606;5.302;2022-12-07T00:49:20;63.00;;;25.10;;
23390;SDS011;11868;45.606;5.302;2022-12-07T00:51:47;57.75;;;26.25;;
23390;SDS011;11868;45.606;5.302;2022-12-07T00:54:13;49.78;;;24.38;;
23390;SDS011;11868;45.606;5.302;2022-12-07T00:56:38;47.53;;;23.77;;
23390;SDS011;11868;45.606;5.302;2022-12-07T04:08:11;42.65;;;20.65;;
23390;SDS011;11868;45.606;5.302;2022-12-07T04:10:37;41.83;;;20.13;;
23390;SDS011;11868;45.606;5.302;2022-12-07T04:13:02;42.97;;;19.73;;
23390;SDS011;11868;45.606;5.302;2022-12-07T04:15:28;37.78;;;18.70;;
23390;SDS011;11868;45.606;5.302;2022-12-07T04:17:53;42.72;;;19.25;;
23390;SDS011;11868;45.606;5.302;2022-12-07T04:20:19;41.33;;;19.55;;
23390;SDS011;11868;45.606;5.302;2022-12-07T04:22:45;40.58;;;19.23;;
23390;SDS011;11868;45.606;5.302;2022-12-07T04:25:10;39.13;;;18.92;;
23390;SDS011;11868;45.606;5.302;2022-12-07T04:27:36;37.95;;;18.83;;
23390;SDS011;11868;45.606;5.302;2022-12-07T04:30:01;41.67;;;20.52;;
23390;SDS011;11868;45.606;5.302;2022-12-07T04:32:27;42.65;;;20.85;;
23390;SDS011;11868;45.606;5.302;2022-12-07T04:34:52;42.55;;;19.42;;
23390;SDS011;11868;45.606;5.302;2022-12-07T04:37:18;42.65;;;20.48;;
23390;SDS011;11868;45.606;5.302;2022-12-07T04:39:43;46.88;;;19.75;;
23390;SDS011;11868;45.606;5.302;2022-12-07T04:42:10;42.22;;;19.98;;
23390;SDS011;11868;45.606;5.302;2022-12-07T04:44:35;39.63;;;19.02;;
23390;SDS011;11868;45.606;5.302;2022-12-07T04:47:01;38.58;;;19.35;;
23390;SDS011;11868;45.606;5.302;2022-12-07T04:49:26;40.08;;;19.95;;
23390;SDS011;11868;45.606;5.302;2022-12-07T04:51:52;33.03;;;17.75;;
23390;SDS011;11868;45.606;5.302;2022-12-07T04:54:17;32.80;;;17.08;;
23390;SDS011;11868;45.606;5.302;2022-12-07T04:56:43;36.08;;;18.10;;
23390;SDS011;11868;45.606;5.302;2022-12-07T04:59:09;33.70;;;17.67;;
23390;SDS011;11868;45.606;5.302;2022-12-07T05:01:35;34.00;;;16.80;;
23390;SDS011;11868;45.606;5.302;2022-12-07T05:04:01;34.25;;;18.15;;
23390;SDS011;11868;45.606;5.302;2022-12-07T05:06:26;32.55;;;16.42;;
23390;SDS011;11868;45.606;5.302;2022-12-07T05:08:52;34.55;;;16.42;;
23390;SDS011;11868;45.606;5.302;2022-12-07T05:11:17;37.53;;;18.63;;
23390;SDS011;11868;45.606;5.302;2022-12-07T05:14:02;36.03;;;16.90;;
23390;SDS011;11868;45.606;5.302;2022-12-07T05:16:28;32.78;;;17.15;;
23390;SDS011;11868;45.606;5.302;2022-12-07T05:18:54;32.08;;;17.13;;
23390;SDS011;11868;45.606;5.302;2022-12-07T05:21:19;37.08;;;18.40;;
23390;SDS011;11868;45.606;5.302;2022-12-07T05:23:45;38.92;;;19.13;;
23390;SDS011;11868;45.606;5.302;2022-12-07T05:26:10;36.15;;;19.13;;
23390;SDS011;11868;45.606;5.302;2022-12-07T05:28:35;45.17;;;20.40;;
23390;SDS011;11868;45.606;5.302;2022-12-07T05:31:01;40.22;;;20.10;;
23390;SDS011;11868;45.606;5.302;2022-12-07T05:33:26;45.53;;;20.23;;
23390;SDS011;11868;45.606;5.302;2022-12-07T05:35:52;40.13;;;20.45;;
23390;SDS011;11868;45.606;5.302;2022-12-07T05:38:17;42.50;;;20.60;;
23390;SDS011;11868;45.606;5.302;2022-12-07T05:40:42;41.63;;;20.08;;
23390;SDS011;11868;45.606;5.302;2022-12-07T05:43:08;38.88;;;20.13;;
23390;SDS011;11868;45.606;5.302;2022-12-07T05:45:33;40.38;;;19.77;;
23390;SDS011;11868;45.606;5.302;2022-12-07T05:47:59;42.72;;;21.35;;
23390;SDS011;11868;45.606;5.302;2022-12-07T05:50:24;41.83;;;21.15;;
23390;SDS011;11868;45.606;5.302;2022-12-07T05:52:50;42.63;;;20.80;;
23390;SDS011;11868;45.606;5.302;2022-12-07T05:55:15;47.15;;;20.77;;
23390;SDS011;11868;45.606;5.302;2022-12-07T05:57:40;44.85;;;22.67;;
23390;SDS011;11868;45.606;5.302;2022-12-07T06:00:26;72.45;;;36.67;;
23390;SDS011;11868;45.606;5.302;2022-12-07T06:02:51;89.00;;;41.80;;
23390;SDS011;11868;45.606;5.302;2022-12-07T06:05:16;65.82;;;32.30;;
23390;SDS011;11868;45.606;5.302;2022-12-07T06:07:42;45.28;;;22.05;;
23390;SDS011;11868;45.606;5.302;2022-12-07T06:10:07;47.08;;;21.85;;
23390;SDS011;11868;45.606;5.302;2022-12-07T06:12:33;46.38;;;21.10;;
23390;SDS011;11868;45.606;5.302;2022-12-07T06:14:58;50.03;;;22.00;;
23390;SDS011;11868;45.606;5.302;2022-12-07T06:17:24;47.47;;;21.92;;
23390;SDS011;11868;45.606;5.302;2022-12-07T06:19:49;55.92;;;23.85;;
23390;SDS011;11868;45.606;5.302;2022-12-07T06:22:15;52.65;;;23.75;;
23390;SDS011;11868;45.606;5.302;2022-12-07T06:24:41;49.45;;;22.63;;
23390;SDS011;11868;45.606;5.302;2022-12-07T06:27:06;54.40;;;23.38;;
23390;SDS011;11868;45.606;5.302;2022-12-07T06:29:32;52.47;;;22.40;;
23390;SDS011;11868;45.606;5.302;2022-12-07T06:31:58;56.05;;;24.42;;
23390;SDS011;11868;45.606;5.302;2022-12-07T06:34:23;62.08;;;23.60;;
23390;SDS011;11868;45.606;5.302;2022-12-07T06:36:50;63.08;;;23.83;;
23390;SDS011;11868;45.606;5.302;2022-12-07T06:39:23;59.85;;;24.02;;
23390;SDS011;11868;45.606;5.302;2022-12-07T06:41:53;61.55;;;24.27;;
23390;SDS011;11868;45.606;5.302;2022-12-07T06:44:19;75.13;;;25.85;;
23390;SDS011;11868;45.606;5.302;2022-12-07T06:46:45;62.30;;;24.67;;
23390;SDS011;11868;45.606;5.302;2022-12-07T06:49:11;73.22;;;24.33;;
23390;SDS011;11868;45.606;5.302;2022-12-07T06:51:37;68.22;;;24.10;;
23390;SDS011;11868;45.606;5.302;2022-12-07T06:54:06;58.95;;;23.40;;
23390;SDS011;11868;45.606;5.302;2022-12-07T06:56:32;75.55;;;22.08;;
23390;SDS011;11868;45.606;5.302;2022-12-07T06:58:58;62.85;;;23.70;;
23390;SDS011;11868;45.606;5.302;2022-12-07T07:01:23;59.00;;;23.00;;
23390;SDS011;11868;45.606;5.302;2022-12-07T07:03:48;46.83;;;22.30;;
23390;SDS011;11868;45.606;5.302;2022-12-07T07:06:14;59.70;;;22.73;;
23390;SDS011;11868;45.606;5.302;2022-12-07T07:08:40;61.95;;;22.92;;
23390;SDS011;11868;45.606;5.302;2022-12-07T07:11:06;69.30;;;25.00;;
23390;SDS011;11868;45.606;5.302;2022-12-07T07:13:32;55.53;;;22.73;;
23390;SDS011;11868;45.606;5.302;2022-12-07T07:15:58;75.07;;;22.40;;
23390;SDS011;11868;45.606;5.302;2022-12-07T07:18:24;54.85;;;21.90;;
23390;SDS011;11868;45.606;5.302;2022-12-07T07:20:52;61.47;;;22.90;;
23390;SDS011;11868;45.606;5.302;2022-12-07T07:23:18;57.92;;;21.95;;
23390;SDS011;11868;45.606;5.302;2022-12-07T07:25:44;64.30;;;23.15;;
23390;SDS011;11868;45.606;5.302;2022-12-07T07:28:10;61.80;;;21.73;;
23390;SDS011;11868;45.606;5.302;2022-12-07T07:30:35;72.35;;;20.50;;
23390;SDS011;11868;45.606;5.302;2022-12-07T07:33:01;57.95;;;21.80;;
23390;SDS011;11868;45.606;5.302;2022-12-07T07:35:28;59.60;;;20.25;;
23390;SDS011;11868;45.606;5.302;2022-12-07T07:37:54;47.75;;;18.83;;
23390;SDS011;11868;45.606;5.302;2022-12-07T07:40:20;55.55;;;18.77;;
23390;SDS011;11868;45.606;5.302;2022-12-07T07:42:49;43.65;;;18.25;;
23390;SDS011;11868;45.606;5.302;2022-12-07T07:45:15;63.28;;;15.85;;
23390;SDS011;11868;45.606;5.302;2022-12-07T07:47:40;73.25;;;16.90;;
23390;SDS011;11868;45.606;5.302;2022-12-07T07:50:06;46.70;;;15.95;;
23390;SDS011;11868;45.606;5.302;2022-12-07T07:52:32;36.38;;;15.70;;
23390;SDS011;11868;45.606;5.302;2022-12-07T07:54:57;34.35;;;15.68;;
23390;SDS011;11868;45.606;5.302;2022-12-07T07:57:23;35.15;;;15.00;;
23390;SDS011;11868;45.606;5.302;2022-12-07T07:59:48;35.92;;;16.13;;
23390;SDS011;11868;45.606;5.302;2022-12-07T08:02:14;31.17;;;15.20;;
23390;SDS011;11868;45.606;5.302;2022-12-07T08:04:41;31.85;;;15.20;;
23390;SDS011;11868;45.606;5.302;2022-12-07T08:07:06;33.20;;;15.45;;
23390;SDS011;11868;45.606;5.302;2022-12-07T08:09:32;29.60;;;14.68;;
23390;SDS011;11868;45.606;5.302;2022-12-07T08:11:57;32.75;;;14.98;;
23390;SDS011;11868;45.606;5.302;2022-12-07T08:14:23;30.75;;;14.95;;
23390;SDS011;11868;45.606;5.302;2022-12-07T08:16:49;33.33;;;15.02;;
23390;SDS011;11868;45.606;5.302;2022-12-07T08:19:14;25.75;;;14.23;;
23390;SDS011;11868;45.606;5.302;2022-12-07T08:21:40;24.88;;;13.70;;
23390;SDS011;11868;45.606;5.302;2022-12-07T08:24:05;27.90;;;14.02;;
23390;SDS011;11868;45.606;5.302;2022-12-07T08:26:30;25.38;;;13.70;;
23390;SDS011;11868;45.606;5.302;2022-12-07T08:28:56;23.65;;;12.80;;
23390;SDS011;11868;45.606;5.302;2022-12-07T08:31:21;25.38;;;12.77;;
23390;SDS011;11868;45.606;5.302;2022-12-07T08:33:47;24.25;;;12.93;;
23390;SDS011;11868;45.606;5.302;2022-12-07T08:36:13;27.80;;;12.70;;
23390;SDS011;11868;45.606;5.302;2022-12-07T08:38:39;25.38;;;12.98;;
23390;SDS011;11868;45.606;5.302;2022-12-07T08:41:05;30.38;;;13.52;;
23390;SDS011;11868;45.606;5.302;2022-12-07T08:43:31;27.58;;;13.68;;
23390;SDS011;11868;45.606;5.302;2022-12-07T08:49:07;26.27;;;13.85;;
23390;SDS011;11868;45.606;5.302;2022-12-07T08:51:38;34.78;;;14.73;;
23390;SDS011;11868;45.606;5.302;2022-12-07T08:54:05;29.35;;;14.63;;
23390;SDS011;11868;45.606;5.302;2022-12-07T08:56:33;25.38;;;13.75;;
23390;SDS011;11868;45.606;5.302;2022-12-07T08:58:58;27.83;;;13.38;;
23390;SDS011;11868;45.606;5.302;2022-12-07T09:01:24;28.65;;;14.13;;
23390;SDS011;11868;45.606;5.302;2022-12-07T09:03:49;27.40;;;13.55;;
23390;SDS011;11868;45.606;5.302;2022-12-07T09:06:14;33.50;;;14.40;;
23390;SDS011;11868;45.606;5.302;2022-12-07T09:08:41;42.42;;;14.93;;
23390;SDS011;11868;45.606;5.302;2022-12-07T09:11:09;35.03;;;14.40;;
23390;SDS011;11868;45.606;5.302;2022-12-07T09:13:34;32.10;;;15.35;;
23390;SDS011;11868;45.606;5.302;2022-12-07T09:16:00;30.23;;;15.45;;
23390;SDS011;11868;45.606;5.302;2022-12-07T09:18:25;28.92;;;14.43;;
23390;SDS011;11868;45.606;5.302;2022-12-07T09:20:51;31.73;;;16.17;;
23390;SDS011;11868;45.606;5.302;2022-12-07T09:23:16;33.15;;;16.15;;
23390;SDS011;11868;45.606;5.302;2022-12-07T09:25:42;34.30;;;16.65;;
23390;SDS011;11868;45.606;5.302;2022-12-07T09:28:07;37.97;;;16.55;;
23390;SDS011;11868;45.606;5.302;2022-12-07T09:30:33;37.97;;;16.90;;
23390;SDS011;11868;45.606;5.302;2022-12-07T09:32:58;33.00;;;15.77;;
23390;SDS011;11868;45.606;5.302;2022-12-07T09:35:24;37.78;;;17.13;;
23390;SDS011;11868;45.606;5.302;2022-12-07T09:37:50;36.97;;;18.38;;
23390;SDS011;11868;45.606;5.302;2022-12-07T09:40:16;38.25;;;18.45;;
23390;SDS011;11868;45.606;5.302;2022-12-07T09:42:44;35.60;;;16.52;;
23390;SDS011;11868;45.606;5.302;2022-12-07T09:45:32;32.03;;;16.27;;
23390;SDS011;11868;45.606;5.302;2022-12-07T09:47:58;34.08;;;16.92;;
23390;SDS011;11868;45.606;5.302;2022-12-07T09:50:24;35.53;;;17.02;;
23390;SDS011;11868;45.606;5.302;2022-12-07T09:52:51;37.67;;;17.98;;
23390;SDS011;11868;45.606;5.302;2022-12-07T09:55:27;33.33;;;16.52;;
23390;SDS011;11868;45.606;5.302;2022-12-07T09:57:53;36.28;;;17.30;;
23390;SDS011;11868;45.606;5.302;2022-12-07T10:00:20;39.53;;;18.35;;
23390;SDS011;11868;45.606;5.302;2022-12-07T10:05:21;30.92;;;16.08;;
23390;SDS011;11868;45.606;5.302;2022-12-07T10:07:49;32.45;;;16.90;;
23390;SDS011;11868;45.606;5.302;2022-12-07T10:10:17;36.92;;;18.42;;
23390;SDS011;11868;45.606;5.302;2022-12-07T10:12:52;33.60;;;17.95;;
23390;SDS011;11868;45.606;5.302;2022-12-07T10:15:18;38.35;;;18.20;;
23390;SDS011;11868;45.606;5.302;2022-12-07T10:17:47;37.38;;;18.40;;
23390;SDS011;11868;45.606;5.302;2022-12-07T10:20:16;36.60;;;18.35;;
23390;SDS011;11868;45.606;5.302;2022-12-07T10:25:28;38.58;;;18.23;;
23390;SDS011;11868;45.606;5.302;2022-12-07T10:27:59;34.30;;;17.50;;
23390;SDS011;11868;45.606;5.302;2022-12-07T10:30:28;31.35;;;16.90;;
23390;SDS011;11868;45.606;5.302;2022-12-07T10:32:55;31.08;;;17.40;;
23390;SDS011;11868;45.606;5.302;2022-12-07T10:35:27;33.17;;;17.20;;
23390;SDS011;11868;45.606;5.302;2022-12-07T10:37:55;33.45;;;18.08;;
23390;SDS011;11868;45.606;5.302;2022-12-07T10:51:07;29.25;;;15.80;;
23390;SDS011;11868;45.606;5.302;2022-12-07T11:01:49;27.75;;;15.40;;
23390;SDS011;11868;45.606;5.302;2022-12-07T11:06:57;28.17;;;16.40;;
23390;SDS011;11868;45.606;5.302;2022-12-07T11:12:27;28.70;;;15.98;;
23390;SDS011;11868;45.606;5.302;2022-12-07T11:20:29;36.42;;;19.40;;
23390;SDS011;11868;45.606;5.302;2022-12-07T11:31:43;53.53;;;29.15;;
23390;SDS011;11868;45.606;5.302;2022-12-07T11:37:09;24.77;;;14.40;;
23390;SDS011;11868;45.606;5.302;2022-12-07T11:39:49;26.08;;;14.20;;
23390;SDS011;11868;45.606;5.302;2022-12-07T11:42:21;25.40;;;15.27;;
23390;SDS011;11868;45.606;5.302;2022-12-07T11:47:48;25.15;;;15.27;;
23390;SDS011;11868;45.606;5.302;2022-12-07T11:53:20;27.17;;;15.20;;
23390;SDS011;11868;45.606;5.302;2022-12-07T11:55:54;31.58;;;17.52;;
23390;SDS011;11868;45.606;5.302;2022-12-07T12:06:39;28.40;;;16.60;;
23390;SDS011;11868;45.606;5.302;2022-12-07T12:12:04;26.02;;;15.68;;
23390;SDS011;11868;45.606;5.302;2022-12-07T12:14:36;32.03;;;17.30;;
23390;SDS011;11868;45.606;5.302;2022-12-07T12:17:12;28.85;;;16.83;;
23390;SDS011;11868;45.606;5.302;2022-12-07T12:23:22;27.25;;;17.48;;
23390;SDS011;11868;45.606;5.302;2022-12-07T12:25:40;28.85;;;17.33;;
23390;SDS011;11868;45.606;5.302;2022-12-07T12:28:18;32.20;;;18.10;;
23390;SDS011;11868;45.606;5.302;2022-12-07T12:30:46;30.55;;;18.63;;
23390;SDS011;11868;45.606;5.302;2022-12-07T12:33:30;30.60;;;18.65;;
23390;SDS011;11868;45.606;5.302;2022-12-07T12:44:01;34.55;;;18.40;;
23390;SDS011;11868;45.606;5.302;2022-12-07T12:49:16;30.08;;;18.05;;
23390;SDS011;11868;45.606;5.302;2022-12-07T12:51:59;30.85;;;19.10;;
23390;SDS011;11868;45.606;5.302;2022-12-07T12:54:27;38.72;;;24.05;;
23390;SDS011;11868;45.606;5.302;2022-12-07T12:57:11;34.90;;;20.67;;
23390;SDS011;11868;45.606;5.302;2022-12-07T13:04:54;31.80;;;18.42;;
23390;SDS011;11868;45.606;5.302;2022-12-07T13:12:59;30.40;;;18.02;;
23390;SDS011;11868;45.606;5.302;2022-12-07T13:15:35;31.08;;;18.00;;
23390;SDS011;11868;45.606;5.302;2022-12-07T13:18:04;33.33;;;17.73;;
23390;SDS011;11868;45.606;5.302;2022-12-07T13:20:46;31.13;;;17.17;;
23390;SDS011;11868;45.606;5.302;2022-12-07T13:23:13;34.28;;;18.65;;
23390;SDS011;11868;45.606;5.302;2022-12-07T13:25:49;27.52;;;17.35;;
23390;SDS011;11868;45.606;5.302;2022-12-07T13:28:17;27.77;;;16.95;;
23390;SDS011;11868;45.606;5.302;2022-12-07T13:30:48;31.77;;;19.23;;
23390;SDS011;11868;45.606;5.302;2022-12-07T13:33:48;28.55;;;16.65;;
23390;SDS011;11868;45.606;5.302;2022-12-07T13:36:27;29.30;;;16.63;;
23390;SDS011;11868;45.606;5.302;2022-12-07T13:39:00;29.58;;;17.15;;
23390;SDS011;11868;45.606;5.302;2022-12-07T13:41:41;30.30;;;17.60;;
23390;SDS011;11868;45.606;5.302;2022-12-07T13:44:12;28.23;;;16.92;;
23390;SDS011;11868;45.606;5.302;2022-12-07T13:46:56;25.48;;;16.08;;
23390;SDS011;11868;45.606;5.302;2022-12-07T13:49:32;27.15;;;16.92;;
23390;SDS011;11868;45.606;5.302;2022-12-07T13:54:55;35.88;;;19.40;;
23390;SDS011;11868;45.606;5.302;2022-12-07T13:57:25;52.17;;;31.65;;
23390;SDS011;11868;45.606;5.302;2022-12-07T13:59:52;55.10;;;30.88;;
23390;SDS011;11868;45.606;5.302;2022-12-07T14:02:22;50.33;;;28.77;;
23390;SDS011;11868;45.606;5.302;2022-12-07T14:04:51;56.17;;;35.08;;
23390;SDS011;11868;45.606;5.302;2022-12-07T14:07:26;74.43;;;48.65;;
23390;SDS011;11868;45.606;5.302;2022-12-07T14:09:58;49.05;;;31.17;;
23390;SDS011;11868;45.606;5.302;2022-12-07T14:12:25;58.85;;;39.75;;
23390;SDS011;11868;45.606;5.302;2022-12-07T14:14:51;43.17;;;28.27;;
23390;SDS011;11868;45.606;5.302;2022-12-07T14:17:20;53.40;;;35.88;;
23390;SDS011;11868;45.606;5.302;2022-12-07T14:19:59;56.35;;;36.28;;
23390;SDS011;11868;45.606;5.302;2022-12-07T14:22:34;44.13;;;27.25;;
23390;SDS011;11868;45.606;5.302;2022-12-07T14:27:30;59.13;;;36.28;;
23390;SDS011;11868;45.606;5.302;2022-12-07T14:29:59;26.00;;;16.92;;
23390;SDS011;11868;45.606;5.302;2022-12-07T14:32:26;25.00;;;15.65;;
23390;SDS011;11868;45.606;5.302;2022-12-07T14:34:56;24.60;;;15.50;;
23390;SDS011;11868;45.606;5.302;2022-12-07T14:37:26;25.65;;;16.15;;
23390;SDS011;11868;45.606;5.302;2022-12-07T14:39:52;23.20;;;15.02;;
23390;SDS011;11868;45.606;5.302;2022-12-07T14:42:17;23.55;;;15.32;;
23390;SDS011;11868;45.606;5.302;2022-12-07T14:44:43;25.95;;;15.05;;
23390;SDS011;11868;45.606;5.302;2022-12-07T14:47:12;29.45;;;16.15;;
23390;SDS011;11868;45.606;5.302;2022-12-07T14:49:37;28.55;;;16.42;;
23390;SDS011;11868;45.606;5.302;2022-12-07T14:52:03;25.38;;;15.70;;
23390;SDS011;11868;45.606;5.302;2022-12-07T14:54:30;27.65;;;15.90;;
23390;SDS011;11868;45.606;5.302;2022-12-07T14:56:57;26.88;;;16.77;;
23390;SDS011;11868;45.606;5.302;2022-12-07T14:59:23;25.73;;;16.35;;
23390;SDS011;11868;45.606;5.302;2022-12-07T15:01:48;25.67;;;16.23;;
23390;SDS011;11868;45.606;5.302;2022-12-07T15:04:14;25.15;;;15.93;;
23390;SDS011;11868;45.606;5.302;2022-12-07T15:06:39;29.45;;;16.70;;
23390;SDS011;11868;45.606;5.302;2022-12-07T15:09:05;24.95;;;16.42;;
23390;SDS011;11868;45.606;5.302;2022-12-07T15:11:31;28.77;;;16.08;;
23390;SDS011;11868;45.606;5.302;2022-12-07T15:13:56;27.33;;;16.77;;
23390;SDS011;11868;45.606;5.302;2022-12-07T15:16:38;27.15;;;16.48;;
23390;SDS011;11868;45.606;5.302;2022-12-07T15:19:05;26.15;;;16.63;;
23390;SDS011;11868;45.606;5.302;2022-12-07T15:21:33;28.10;;;15.95;;
23390;SDS011;11868;45.606;5.302;2022-12-07T15:23:58;30.75;;;16.15;;
23390;SDS011;11868;45.606;5.302;2022-12-07T15:26:24;27.83;;;16.63;;
23390;SDS011;11868;45.606;5.302;2022-12-07T15:28:49;27.40;;;16.30;;
23390;SDS011;11868;45.606;5.302;2022-12-07T15:31:15;25.70;;;15.70;;
23390;SDS011;11868;45.606;5.302;2022-12-07T15:33:42;23.38;;;15.00;;
23390;SDS011;11868;45.606;5.302;2022-12-07T15:38:34;25.75;;;15.93;;
23390;SDS011;11868;45.606;5.302;2022-12-07T15:41:00;24.30;;;15.23;;
23390;SDS011;11868;45.606;5.302;2022-12-07T15:43:25;26.95;;;16.45;;
23390;SDS011;11868;45.606;5.302;2022-12-07T15:46:09;26.17;;;16.60;;
23390;SDS011;11868;45.606;5.302;2022-12-07T15:48:35;28.98;;;17.63;;
23390;SDS011;11868;45.606;5.302;2022-12-07T15:51:04;25.90;;;16.10;;
23390;SDS011;11868;45.606;5.302;2022-12-07T15:53:31;27.70;;;17.63;;
23390;SDS011;11868;45.606;5.302;2022-12-07T15:55:57;27.08;;;16.50;;
23390;SDS011;11868;45.606;5.302;2022-12-07T15:58:22;26.80;;;15.40;;
23390;SDS011;11868;45.606;5.302;2022-12-07T16:00:48;23.90;;;15.27;;
23390;SDS011;11868;45.606;5.302;2022-12-07T16:03:13;27.75;;;16.63;;
23390;SDS011;11868;45.606;5.302;2022-12-07T16:05:39;27.67;;;16.23;;
23390;SDS011;11868;45.606;5.302;2022-12-07T16:08:04;26.75;;;15.80;;
23390;SDS011;11868;45.606;5.302;2022-12-07T16:10:30;25.00;;;15.30;;
23390;SDS011;11868;45.606;5.302;2022-12-07T16:12:55;24.80;;;16.10;;
23390;SDS011;11868;45.606;5.302;2022-12-07T16:15:21;26.73;;;16.27;;
23390;SDS011;11868;45.606;5.302;2022-12-07T16:17:46;25.63;;;15.95;;
23390;SDS011;11868;45.606;5.302;2022-12-07T16:20:11;22.90;;;15.35;;
23390;SDS011;11868;45.606;5.302;2022-12-07T16:22:37;26.15;;;15.68;;
23390;SDS011;11868;45.606;5.302;2022-12-07T16:25:02;26.92;;;16.88;;
23390;SDS011;11868;45.606;5.302;2022-12-07T16:27:28;25.52;;;16.25;;
23390;SDS011;11868;45.606;5.302;2022-12-07T16:29:53;23.80;;;15.32;;
23390;SDS011;11868;45.606;5.302;2022-12-07T16:32:19;25.55;;;15.50;;
23390;SDS011;11868;45.606;5.302;2022-12-07T16:34:44;25.23;;;15.88;;
23390;SDS011;11868;45.606;5.302;2022-12-07T16:37:09;26.50;;;16.30;;
23390;SDS011;11868;45.606;5.302;2022-12-07T16:39:35;25.70;;;16.48;;
23390;SDS011;11868;45.606;5.302;2022-12-07T16:42:00;29.38;;;16.23;;
23390;SDS011;11868;45.606;5.302;2022-12-07T16:44:26;26.35;;;16.13;;
23390;SDS011;11868;45.606;5.302;2022-12-07T16:46:51;23.38;;;14.88;;
23390;SDS011;11868;45.606;5.302;2022-12-07T16:49:17;27.65;;;16.30;;
23390;SDS011;11868;45.606;5.302;2022-12-07T16:51:43;26.75;;;15.60;;
23390;SDS011;11868;45.606;5.302;2022-12-07T16:54:12;25.42;;;15.32;;
23390;SDS011;11868;45.606;5.302;2022-12-07T16:56:37;26.83;;;16.33;;
23390;SDS011;11868;45.606;5.302;2022-12-07T16:59:03;24.00;;;15.27;;
23390;SDS011;11868;45.606;5.302;2022-12-07T17:01:28;27.85;;;16.52;;
23390;SDS011;11868;45.606;5.302;2022-12-07T17:03:54;26.15;;;15.57;;
23390;SDS011;11868;45.606;5.302;2022-12-07T17:06:22;24.95;;;15.45;;
23390;SDS011;11868;45.606;5.302;2022-12-07T17:08:49;24.05;;;16.63;;
23390;SDS011;11868;45.606;5.302;2022-12-07T17:11:17;24.27;;;14.88;;
23390;SDS011;11868;45.606;5.302;2022-12-07T17:13:45;26.23;;;14.73;;
23390;SDS011;11868;45.606;5.302;2022-12-07T17:16:30;24.38;;;15.30;;
23390;SDS011;11868;45.606;5.302;2022-12-07T17:18:55;29.33;;;14.85;;
23390;SDS011;11868;45.606;5.302;2022-12-07T17:21:21;24.80;;;15.68;;
23390;SDS011;11868;45.606;5.302;2022-12-07T17:23:47;25.30;;;15.98;;
23390;SDS011;11868;45.606;5.302;2022-12-07T17:26:15;26.65;;;16.20;;
23390;SDS011;11868;45.606;5.302;2022-12-07T17:28:42;23.15;;;15.27;;
23390;SDS011;11868;45.606;5.302;2022-12-07T17:31:10;17.60;;;11.65;;
23390;SDS011;11868;45.606;5.302;2022-12-07T17:33:37;24.27;;;15.65;;
23390;SDS011;11868;45.606;5.302;2022-12-07T17:36:12;27.48;;;16.95;;
23390;SDS011;11868;45.606;5.302;2022-12-07T17:38:38;27.90;;;16.80;;
23390;SDS011;11868;45.606;5.302;2022-12-07T17:41:37;28.35;;;16.77;;
23390;SDS011;11868;45.606;5.302;2022-12-07T17:44:15;27.35;;;16.20;;
23390;SDS011;11868;45.606;5.302;2022-12-07T17:46:42;25.63;;;16.17;;
23390;SDS011;11868;45.606;5.302;2022-12-07T17:49:08;26.75;;;16.33;;
23390;SDS011;11868;45.606;5.302;2022-12-07T17:51:34;29.50;;;17.10;;
23390;SDS011;11868;45.606;5.302;2022-12-07T17:54:18;27.38;;;16.48;;
23390;SDS011;11868;45.606;5.302;2022-12-07T17:56:44;26.00;;;16.55;;
23390;SDS011;11868;45.606;5.302;2022-12-07T17:59:10;27.33;;;16.98;;
23390;SDS011;11868;45.606;5.302;2022-12-07T18:01:36;30.15;;;17.45;;
23390;SDS011;11868;45.606;5.302;2022-12-07T18:04:02;32.72;;;18.08;;
23390;SDS011;11868;45.606;5.302;2022-12-07T18:06:28;30.45;;;18.05;;
23390;SDS011;11868;45.606;5.302;2022-12-07T18:08:54;27.17;;;17.48;;
23390;SDS011;11868;45.606;5.302;2022-12-07T18:11:19;31.60;;;18.20;;
23390;SDS011;11868;45.606;5.302;2022-12-07T18:13:45;31.10;;;18.05;;
23390;SDS011;11868;45.606;5.302;2022-12-07T18:16:12;29.38;;;17.38;;
23390;SDS011;11868;45.606;5.302;2022-12-07T18:18:39;25.73;;;17.17;;
23390;SDS011;11868;45.606;5.302;2022-12-07T18:21:09;26.98;;;17.23;;
23390;SDS011;11868;45.606;5.302;2022-12-07T18:23:38;27.50;;;17.70;;
23390;SDS011;11868;45.606;5.302;2022-12-07T18:26:05;28.95;;;18.00;;
23390;SDS011;11868;45.606;5.302;2022-12-07T18:28:31;29.17;;;18.17;;
23390;SDS011;11868;45.606;5.302;2022-12-07T18:30:56;29.90;;;18.45;;
23390;SDS011;11868;45.606;5.302;2022-12-07T18:33:21;32.40;;;19.33;;
23390;SDS011;11868;45.606;5.302;2022-12-07T18:35:47;33.88;;;20.20;;
23390;SDS011;11868;45.606;5.302;2022-12-07T18:38:13;31.45;;;19.38;;
23390;SDS011;11868;45.606;5.302;2022-12-07T18:40:39;31.90;;;20.23;;
23390;SDS011;11868;45.606;5.302;2022-12-07T18:43:05;27.35;;;17.90;;
23390;SDS011;11868;45.606;5.302;2022-12-07T18:45:35;32.30;;;19.83;;
23390;SDS011;11868;45.606;5.302;2022-12-07T18:48:01;33.10;;;19.92;;
23390;SDS011;11868;45.606;5.302;2022-12-07T18:50:27;32.28;;;19.75;;
23390;SDS011;11868;45.606;5.302;2022-12-07T18:52:52;37.30;;;21.77;;
23390;SDS011;11868;45.606;5.302;2022-12-07T18:55:17;35.50;;;22.08;;
23390;SDS011;11868;45.606;5.302;2022-12-07T18:57:43;36.45;;;21.20;;
23390;SDS011;11868;45.606;5.302;2022-12-07T19:00:09;32.70;;;20.10;;
23390;SDS011;11868;45.606;5.302;2022-12-07T19:02:35;38.15;;;21.40;;
23390;SDS011;11868;45.606;5.302;2022-12-07T19:05:00;32.72;;;20.13;;
23390;SDS011;11868;45.606;5.302;2022-12-07T19:07:26;35.05;;;21.23;;
23390;SDS011;11868;45.606;5.302;2022-12-07T19:09:51;35.03;;;21.27;;
23390;SDS011;11868;45.606;5.302;2022-12-07T19:12:17;31.95;;;20.58;;